SWA4235 KBNA-KPHX
Flight info
| Callsign | SWA4235 |
|---|---|
| Flight time | N/A |
| Altitude | 32000 |
| Route | PARDN4 HODJS MMB ZUN EAGUL6 |
| Aircraft | B738/M-SDE2E3FGHIRWXY/LB1 |
Departure
| Time | 2026-05-03 23:11 |
|---|---|
| Airport | Nashville International Airport (KBNA) |
Arrival
| Time | N/A |
|---|---|
| Airport | Phoenix Sky Harbor International Airport (KPHX) |
| Time | Latitude | Longitude | Altitude | Speed | Heading |
|---|---|---|---|---|---|
| 2026-05-03 22:46 | 36.12740 | -86.66937 | 567 ft | 0 kts | 26° |
| 2026-05-03 22:58 | 36.12726 | -86.66945 | 574 ft | 2 kts | 26° |
| 2026-05-03 22:59 | 36.12711 | -86.66954 | 572 ft | 2 kts | 26° |
| 2026-05-03 22:59 | 36.12696 | -86.66963 | 570 ft | 2 kts | 25° |
| 2026-05-03 22:59 | 36.12682 | -86.66972 | 574 ft | 2 kts | 25° |
| 2026-05-03 22:59 | 36.12678 | -86.66974 | 574 ft | 0 kts | 25° |
| 2026-05-03 23:05 | 36.12679 | -86.66973 | 588 ft | 1 kts | 25° |
| 2026-05-03 23:05 | 36.12716 | -86.67000 | 572 ft | 10 kts | 311° |
| 2026-05-03 23:05 | 36.12767 | -86.67068 | 569 ft | 14 kts | 311° |
| 2026-05-03 23:06 | 36.12838 | -86.67177 | 571 ft | 18 kts | 306° |
| 2026-05-03 23:06 | 36.12833 | -86.67297 | 572 ft | 13 kts | 225° |
| 2026-05-03 23:06 | 36.12769 | -86.67374 | 576 ft | 13 kts | 224° |
| 2026-05-03 23:06 | 36.12749 | -86.67468 | 576 ft | 13 kts | 301° |
| 2026-05-03 23:07 | 36.12820 | -86.67568 | 578 ft | 18 kts | 313° |
| 2026-05-03 23:07 | 36.12922 | -86.67703 | 574 ft | 24 kts | 313° |
| 2026-05-03 23:07 | 36.13032 | -86.67849 | 573 ft | 22 kts | 313° |
| 2026-05-03 23:07 | 36.13153 | -86.67918 | 572 ft | 20 kts | 15° |
| 2026-05-03 23:08 | 36.13299 | -86.67862 | 570 ft | 22 kts | 18° |
| 2026-05-03 23:08 | 36.13443 | -86.67806 | 570 ft | 21 kts | 17° |
| 2026-05-03 23:08 | 36.13543 | -86.67766 | 568 ft | 14 kts | 17° |
| 2026-05-03 23:08 | 36.13645 | -86.67727 | 564 ft | 11 kts | 17° |
| 2026-05-03 23:09 | 36.13720 | -86.67704 | 563 ft | 10 kts | 346° |
| 2026-05-03 23:09 | 36.13744 | -86.67744 | 564 ft | 0 kts | 291° |
| 2026-05-03 23:09 | 36.13748 | -86.67756 | 566 ft | 6 kts | 291° |
| 2026-05-03 23:10 | 36.13772 | -86.67842 | 563 ft | 13 kts | 277° |
| 2026-05-03 23:10 | 36.13728 | -86.67883 | 566 ft | 8 kts | 199° |
| 2026-05-03 23:10 | 36.13590 | -86.67934 | 571 ft | 50 kts | 197° |
| 2026-05-03 23:10 | 36.13027 | -86.68156 | 580 ft | 118 kts | 198° |
| 2026-05-03 23:11 | 36.12065 | -86.68559 | 634 ft | 170 kts | 200° |
| 2026-05-03 23:11 | 36.10882 | -86.69064 | 1121 ft | 188 kts | 208° |
| 2026-05-03 23:11 | 36.09772 | -86.70059 | 1585 ft | 205 kts | 237° |
| 2026-05-03 23:11 | 36.09095 | -86.71632 | 2119 ft | 213 kts | 246° |
| 2026-05-03 23:12 | 36.08358 | -86.73278 | 2565 ft | 224 kts | 242° |
| 2026-05-03 23:12 | 36.07521 | -86.74960 | 3026 ft | 234 kts | 240° |
| 2026-05-03 23:12 | 36.06826 | -86.76771 | 3408 ft | 234 kts | 263° |
| 2026-05-03 23:12 | 36.06848 | -86.78757 | 3906 ft | 233 kts | 283° |
| 2026-05-03 23:13 | 36.07229 | -86.80711 | 4395 ft | 235 kts | 286° |
| 2026-05-03 23:13 | 36.07651 | -86.82654 | 4826 ft | 231 kts | 286° |
| 2026-05-03 23:13 | 36.08057 | -86.84552 | 5297 ft | 228 kts | 285° |
| 2026-05-03 23:13 | 36.08458 | -86.86460 | 5737 ft | 231 kts | 284° |
| 2026-05-03 23:14 | 36.08928 | -86.88362 | 6205 ft | 233 kts | 295° |
| 2026-05-03 23:14 | 36.09775 | -86.90082 | 6665 ft | 238 kts | 302° |
| 2026-05-03 23:14 | 36.10723 | -86.91825 | 7144 ft | 250 kts | 302° |
| 2026-05-03 23:14 | 36.11712 | -86.93639 | 7607 ft | 256 kts | 302° |
| 2026-05-03 23:15 | 36.12702 | -86.95461 | 8055 ft | 253 kts | 302° |
| 2026-05-03 23:15 | 36.13675 | -86.97263 | 8500 ft | 251 kts | 302° |
| 2026-05-03 23:15 | 36.14640 | -86.99060 | 8968 ft | 251 kts | 302° |
| 2026-05-03 23:15 | 36.15605 | -87.00860 | 9443 ft | 251 kts | 302° |
| 2026-05-03 23:16 | 36.16578 | -87.02682 | 9951 ft | 258 kts | 302° |
| 2026-05-03 23:16 | 36.17588 | -87.04575 | 10398 ft | 270 kts | 302° |
| 2026-05-03 23:16 | 36.18628 | -87.06527 | 10829 ft | 281 kts | 302° |
| 2026-05-03 23:16 | 36.19725 | -87.08589 | 11290 ft | 291 kts | 302° |
| 2026-05-03 23:17 | 36.20844 | -87.10693 | 11714 ft | 294 kts | 302° |
| 2026-05-03 23:17 | 36.21970 | -87.12812 | 12141 ft | 295 kts | 302° |
| 2026-05-03 23:17 | 36.23103 | -87.14943 | 12575 ft | 297 kts | 302° |
| 2026-05-03 23:17 | 36.24245 | -87.17095 | 12947 ft | 300 kts | 303° |
| 2026-05-03 23:18 | 36.25396 | -87.19264 | 13317 ft | 302 kts | 303° |
| 2026-05-03 23:18 | 36.26510 | -87.21478 | 13686 ft | 303 kts | 297° |
| 2026-05-03 23:18 | 36.27329 | -87.23888 | 14046 ft | 304 kts | 288° |
| 2026-05-03 23:18 | 36.27817 | -87.26442 | 14387 ft | 305 kts | 283° |
| 2026-05-03 23:19 | 36.28225 | -87.29023 | 14740 ft | 305 kts | 283° |
| 2026-05-03 23:19 | 36.28624 | -87.31606 | 15078 ft | 305 kts | 283° |
| 2026-05-03 23:19 | 36.29029 | -87.34199 | 15431 ft | 310 kts | 283° |
| 2026-05-03 23:19 | 36.29451 | -87.36870 | 15802 ft | 321 kts | 283° |
| 2026-05-03 23:20 | 36.29891 | -87.39630 | 16154 ft | 332 kts | 283° |
| 2026-05-03 23:20 | 36.30349 | -87.42488 | 16438 ft | 344 kts | 283° |
| 2026-05-03 23:20 | 36.30823 | -87.45440 | 16735 ft | 355 kts | 283° |
| 2026-05-03 23:20 | 36.31305 | -87.48485 | 17037 ft | 365 kts | 282° |
| 2026-05-03 23:21 | 36.31569 | -87.51655 | 17326 ft | 376 kts | 274° |
| 2026-05-03 23:21 | 36.31452 | -87.54921 | 17623 ft | 381 kts | 270° |
| 2026-05-03 23:21 | 36.31273 | -87.58192 | 17910 ft | 380 kts | 270° |
| 2026-05-03 23:21 | 36.31091 | -87.61461 | 18201 ft | 380 kts | 270° |
| 2026-05-03 23:22 | 36.30796 | -87.66884 | 18649 ft | 379 kts | 270° |
| 2026-05-03 23:22 | 36.30625 | -87.70152 | 18911 ft | 380 kts | 270° |
| 2026-05-03 23:22 | 36.30456 | -87.73420 | 19168 ft | 380 kts | 271° |
| 2026-05-03 23:23 | 36.30288 | -87.76699 | 19437 ft | 381 kts | 271° |
| 2026-05-03 23:23 | 36.30120 | -87.79979 | 19694 ft | 382 kts | 271° |
| 2026-05-03 23:23 | 36.29951 | -87.83276 | 19964 ft | 384 kts | 271° |
| 2026-05-03 23:23 | 36.29781 | -87.86581 | 20231 ft | 385 kts | 271° |
| 2026-05-03 23:24 | 36.29598 | -87.89904 | 20531 ft | 387 kts | 270° |
| 2026-05-03 23:24 | 36.29371 | -87.93236 | 20808 ft | 389 kts | 271° |
| 2026-05-03 23:24 | 36.29198 | -87.96586 | 21083 ft | 391 kts | 271° |
| 2026-05-03 23:24 | 36.29042 | -87.99966 | 21356 ft | 393 kts | 271° |
| 2026-05-03 23:25 | 36.28883 | -88.03353 | 21648 ft | 395 kts | 271° |
| 2026-05-03 23:25 | 36.28714 | -88.06755 | 21915 ft | 397 kts | 271° |
| 2026-05-03 23:25 | 36.28525 | -88.10171 | 22229 ft | 398 kts | 270° |
| 2026-05-03 23:25 | 36.28295 | -88.13596 | 22523 ft | 399 kts | 271° |
| 2026-05-03 23:26 | 36.28129 | -88.17038 | 22816 ft | 401 kts | 271° |
| 2026-05-03 23:26 | 36.27964 | -88.20497 | 23116 ft | 403 kts | 271° |
| 2026-05-03 23:26 | 36.27877 | -88.23964 | 23403 ft | 402 kts | 276° |
| 2026-05-03 23:26 | 36.28053 | -88.27418 | 23696 ft | 402 kts | 278° |
| 2026-05-03 23:27 | 36.28250 | -88.30847 | 23942 ft | 404 kts | 278° |
| 2026-05-03 23:27 | 36.28450 | -88.34325 | 24193 ft | 406 kts | 278° |
| 2026-05-03 23:27 | 36.28647 | -88.37822 | 24444 ft | 407 kts | 278° |
| 2026-05-03 23:27 | 36.28841 | -88.41335 | 24706 ft | 409 kts | 278° |
| 2026-05-03 23:28 | 36.29031 | -88.44853 | 24966 ft | 410 kts | 277° |
| 2026-05-03 23:28 | 36.29218 | -88.48386 | 25225 ft | 411 kts | 277° |
| 2026-05-03 23:28 | 36.29403 | -88.51930 | 25489 ft | 413 kts | 277° |
| 2026-05-03 23:28 | 36.29588 | -88.55484 | 25759 ft | 414 kts | 277° |
| 2026-05-03 23:29 | 36.29771 | -88.59054 | 26034 ft | 415 kts | 277° |
| 2026-05-03 23:29 | 36.29954 | -88.62626 | 26299 ft | 416 kts | 277° |
| 2026-05-03 23:29 | 36.30136 | -88.66217 | 26581 ft | 418 kts | 277° |
| 2026-05-03 23:29 | 36.30318 | -88.69818 | 26840 ft | 419 kts | 277° |
| 2026-05-03 23:30 | 36.30499 | -88.73427 | 27120 ft | 420 kts | 277° |
| 2026-05-03 23:30 | 36.30679 | -88.77037 | 27387 ft | 420 kts | 277° |
| 2026-05-03 23:30 | 36.30858 | -88.80655 | 27669 ft | 420 kts | 277° |
| 2026-05-03 23:30 | 36.31034 | -88.84224 | 27951 ft | 420 kts | 277° |
| 2026-05-03 23:31 | 36.31211 | -88.87837 | 28233 ft | 419 kts | 277° |
| 2026-05-03 23:31 | 36.31386 | -88.91444 | 28515 ft | 418 kts | 277° |
| 2026-05-03 23:31 | 36.31559 | -88.95035 | 28810 ft | 417 kts | 277° |
| 2026-05-03 23:31 | 36.31731 | -88.98616 | 29107 ft | 415 kts | 277° |
| 2026-05-03 23:32 | 36.31901 | -89.02182 | 29412 ft | 413 kts | 277° |
| 2026-05-03 23:32 | 36.32070 | -89.05735 | 29702 ft | 411 kts | 277° |
| 2026-05-03 23:32 | 36.32236 | -89.09266 | 30010 ft | 409 kts | 277° |
| 2026-05-03 23:32 | 36.32401 | -89.12774 | 30287 ft | 407 kts | 277° |
| 2026-05-03 23:33 | 36.32564 | -89.16274 | 30547 ft | 405 kts | 277° |
| 2026-05-03 23:33 | 36.32725 | -89.19758 | 30808 ft | 403 kts | 277° |
| 2026-05-03 23:33 | 36.32885 | -89.23219 | 31077 ft | 401 kts | 277° |
| 2026-05-03 23:33 | 36.33042 | -89.26667 | 31344 ft | 400 kts | 277° |
| 2026-05-03 23:34 | 36.33198 | -89.30100 | 31617 ft | 398 kts | 277° |
| 2026-05-03 23:34 | 36.33353 | -89.33519 | 31885 ft | 397 kts | 277° |
| 2026-05-03 23:34 | 36.33507 | -89.36940 | 32045 ft | 399 kts | 277° |
| 2026-05-03 23:34 | 36.33663 | -89.40397 | 32042 ft | 403 kts | 277° |
| 2026-05-03 23:35 | 36.33970 | -89.47314 | 32028 ft | 403 kts | 277° |
| 2026-05-03 23:35 | 36.34270 | -89.54228 | 32034 ft | 400 kts | 277° |
| 2026-05-03 23:36 | 36.34565 | -89.61103 | 32024 ft | 398 kts | 277° |
| 2026-05-03 23:36 | 36.34856 | -89.67959 | 32037 ft | 397 kts | 277° |
| 2026-05-03 23:37 | 36.35142 | -89.74794 | 32029 ft | 397 kts | 277° |
| 2026-05-03 23:37 | 36.35426 | -89.81646 | 32034 ft | 398 kts | 277° |
| 2026-05-03 23:38 | 36.35706 | -89.88520 | 32024 ft | 399 kts | 277° |
| 2026-05-03 23:38 | 36.35983 | -89.95413 | 32031 ft | 401 kts | 277° |
| 2026-05-03 23:39 | 36.36257 | -90.02335 | 31891 ft | 402 kts | 276° |
| 2026-05-03 23:39 | 36.36526 | -90.09243 | 32012 ft | 401 kts | 276° |
| 2026-05-03 23:40 | 36.36790 | -90.16118 | 32020 ft | 402 kts | 276° |
| 2026-05-03 23:40 | 36.37054 | -90.23069 | 32027 ft | 404 kts | 276° |
| 2026-05-03 23:41 | 36.37313 | -90.30041 | 32025 ft | 405 kts | 276° |
| 2026-05-03 23:41 | 36.37570 | -90.37027 | 32026 ft | 405 kts | 276° |
| 2026-05-03 23:42 | 36.37821 | -90.44017 | 32022 ft | 405 kts | 276° |
| 2026-05-03 23:42 | 36.38069 | -90.50999 | 32025 ft | 404 kts | 276° |
| 2026-05-03 23:43 | 36.38310 | -90.57921 | 32023 ft | 403 kts | 276° |
| 2026-05-03 23:43 | 36.38549 | -90.64876 | 32026 ft | 403 kts | 276° |
| 2026-05-03 23:44 | 36.38783 | -90.71814 | 32025 ft | 402 kts | 276° |
| 2026-05-03 23:44 | 36.39013 | -90.78738 | 32025 ft | 401 kts | 276° |
| 2026-05-03 23:45 | 36.39238 | -90.85647 | 32023 ft | 400 kts | 276° |
| 2026-05-03 23:45 | 36.39459 | -90.92555 | 32024 ft | 400 kts | 276° |
| 2026-05-03 23:46 | 36.39675 | -90.99413 | 32017 ft | 400 kts | 276° |
| 2026-05-03 23:46 | 36.39888 | -91.06317 | 32023 ft | 400 kts | 276° |
| 2026-05-03 23:47 | 36.40098 | -91.13232 | 32016 ft | 401 kts | 276° |
| 2026-05-03 23:47 | 36.40303 | -91.20145 | 32016 ft | 401 kts | 276° |
| 2026-05-03 23:48 | 36.40505 | -91.27072 | 32016 ft | 402 kts | 276° |
| 2026-05-03 23:48 | 36.40703 | -91.34009 | 32017 ft | 402 kts | 276° |
| 2026-05-03 23:49 | 36.40896 | -91.40909 | 32016 ft | 402 kts | 275° |
| 2026-05-03 23:49 | 36.41086 | -91.47857 | 32019 ft | 403 kts | 275° |
| 2026-05-03 23:50 | 36.41243 | -91.53683 | 32018 ft | 403 kts | 275° |
| 2026-05-03 23:50 | 36.41456 | -91.61774 | 32016 ft | 404 kts | 275° |
| 2026-05-03 23:51 | 36.41635 | -91.68752 | 32016 ft | 404 kts | 275° |
| 2026-05-03 23:51 | 36.41809 | -91.75719 | 32013 ft | 404 kts | 275° |
| 2026-05-03 23:52 | 36.41979 | -91.82691 | 32008 ft | 404 kts | 275° |
| 2026-05-03 23:52 | 36.42144 | -91.89605 | 32005 ft | 403 kts | 275° |
| 2026-05-03 23:53 | 36.42307 | -91.96571 | 32003 ft | 403 kts | 275° |
| 2026-05-03 23:53 | 36.42465 | -92.03525 | 32003 ft | 403 kts | 275° |
| 2026-05-03 23:54 | 36.42620 | -92.10477 | 31994 ft | 403 kts | 275° |
| 2026-05-03 23:54 | 36.42770 | -92.17444 | 32001 ft | 403 kts | 275° |
| 2026-05-03 23:55 | 36.42916 | -92.24405 | 31980 ft | 403 kts | 275° |
| 2026-05-03 23:55 | 36.43057 | -92.31321 | 31996 ft | 403 kts | 275° |
| 2026-05-03 23:56 | 36.43195 | -92.38283 | 32002 ft | 403 kts | 275° |
| 2026-05-03 23:56 | 36.43329 | -92.45240 | 32000 ft | 403 kts | 275° |
| 2026-05-03 23:57 | 36.43459 | -92.52193 | 31994 ft | 403 kts | 275° |
| 2026-05-03 23:57 | 36.43585 | -92.59138 | 32003 ft | 402 kts | 274° |
| 2026-05-03 23:58 | 36.43707 | -92.66094 | 31991 ft | 403 kts | 274° |
| 2026-05-03 23:58 | 36.43825 | -92.73046 | 31989 ft | 402 kts | 274° |
| 2026-05-03 23:59 | 36.43938 | -92.79996 | 31986 ft | 402 kts | 274° |
| 2026-05-03 23:59 | 36.44048 | -92.86941 | 31985 ft | 402 kts | 274° |
| 2026-05-04 00:00 | 36.44154 | -92.93896 | 31986 ft | 403 kts | 274° |
| 2026-05-04 00:00 | 36.44255 | -93.00846 | 31991 ft | 402 kts | 274° |
| 2026-05-04 00:01 | 36.44352 | -93.07795 | 31996 ft | 403 kts | 274° |
| 2026-05-04 00:01 | 36.44446 | -93.14700 | 31998 ft | 402 kts | 274° |
| 2026-05-04 00:02 | 36.44535 | -93.21649 | 32000 ft | 402 kts | 274° |
| 2026-05-04 00:02 | 36.44621 | -93.28586 | 31996 ft | 402 kts | 274° |
| 2026-05-04 00:03 | 36.44702 | -93.35534 | 31994 ft | 402 kts | 274° |
| 2026-05-04 00:03 | 36.44779 | -93.42474 | 31989 ft | 402 kts | 274° |
| 2026-05-04 00:04 | 36.44852 | -93.49413 | 31979 ft | 401 kts | 274° |
| 2026-05-04 00:04 | 36.44922 | -93.56344 | 31978 ft | 401 kts | 274° |
| 2026-05-04 00:05 | 36.44987 | -93.63280 | 31976 ft | 401 kts | 274° |
| 2026-05-04 00:05 | 36.45048 | -93.70214 | 31983 ft | 401 kts | 274° |
| 2026-05-04 00:06 | 36.45106 | -93.77150 | 31975 ft | 401 kts | 274° |
| 2026-05-04 00:06 | 36.45158 | -93.84082 | 31980 ft | 402 kts | 274° |
| 2026-05-04 00:07 | 36.45206 | -93.90970 | 31997 ft | 401 kts | 274° |
| 2026-05-04 00:07 | 36.45252 | -93.97914 | 31995 ft | 402 kts | 274° |
| 2026-05-04 00:08 | 36.45294 | -94.04861 | 31996 ft | 402 kts | 274° |
| 2026-05-04 00:08 | 36.45331 | -94.11809 | 32001 ft | 402 kts | 273° |
| 2026-05-04 00:09 | 36.45365 | -94.18755 | 32000 ft | 402 kts | 273° |
| 2026-05-04 00:09 | 36.45394 | -94.25707 | 32009 ft | 402 kts | 273° |
| 2026-05-04 00:10 | 36.45419 | -94.32662 | 32001 ft | 402 kts | 273° |
| 2026-05-04 00:10 | 36.45440 | -94.39614 | 31995 ft | 402 kts | 273° |
| 2026-05-04 00:11 | 36.45455 | -94.45394 | 31991 ft | 405 kts | 273° |
| 2026-05-04 00:11 | 36.45471 | -94.52472 | 31964 ft | 414 kts | 273° |
| 2026-05-04 00:12 | 36.45482 | -94.60834 | 31949 ft | 417 kts | 273° |
| 2026-05-04 00:12 | 36.45485 | -94.66832 | 31947 ft | 417 kts | 273° |
| 2026-05-04 00:13 | 36.45486 | -94.74029 | 31943 ft | 417 kts | 273° |
| 2026-05-04 00:13 | 36.45482 | -94.81225 | 31948 ft | 416 kts | 273° |
| 2026-05-04 00:14 | 36.45475 | -94.88410 | 31945 ft | 416 kts | 272° |
| 2026-05-04 00:14 | 36.45463 | -94.95597 | 31946 ft | 416 kts | 272° |
| 2026-05-04 00:15 | 36.45447 | -95.02773 | 31943 ft | 415 kts | 272° |
| 2026-05-04 00:15 | 36.45427 | -95.09953 | 31940 ft | 415 kts | 272° |
| 2026-05-04 00:16 | 36.45403 | -95.17119 | 31941 ft | 415 kts | 272° |
| 2026-05-04 00:16 | 36.45374 | -95.24284 | 31937 ft | 415 kts | 272° |
| 2026-05-04 00:17 | 36.45341 | -95.31445 | 31939 ft | 414 kts | 272° |
| 2026-05-04 00:17 | 36.45304 | -95.38605 | 31935 ft | 414 kts | 272° |
| 2026-05-04 00:18 | 36.45262 | -95.45760 | 31938 ft | 414 kts | 272° |
| 2026-05-04 00:18 | 36.45216 | -95.52917 | 31935 ft | 414 kts | 272° |
| 2026-05-04 00:19 | 36.45166 | -95.60025 | 31935 ft | 414 kts | 272° |
| 2026-05-04 00:19 | 36.45112 | -95.67179 | 31929 ft | 414 kts | 272° |
| 2026-05-04 00:20 | 36.45054 | -95.74333 | 31920 ft | 414 kts | 272° |
| 2026-05-04 00:20 | 36.44991 | -95.81490 | 31925 ft | 414 kts | 272° |
| 2026-05-04 00:21 | 36.44924 | -95.88647 | 31924 ft | 414 kts | 272° |
| 2026-05-04 00:21 | 36.44852 | -95.95805 | 31926 ft | 414 kts | 272° |
| 2026-05-04 00:22 | 36.44776 | -96.02972 | 31921 ft | 414 kts | 272° |
| 2026-05-04 00:22 | 36.44696 | -96.10127 | 31920 ft | 414 kts | 272° |
| 2026-05-04 00:23 | 36.44612 | -96.17284 | 31915 ft | 414 kts | 272° |
| 2026-05-04 00:23 | 36.44523 | -96.24444 | 31906 ft | 414 kts | 272° |
| 2026-05-04 00:24 | 36.44431 | -96.31547 | 31914 ft | 414 kts | 271° |
| 2026-05-04 00:24 | 36.44334 | -96.38701 | 31906 ft | 414 kts | 271° |
| 2026-05-04 00:25 | 36.44233 | -96.45853 | 31908 ft | 414 kts | 271° |
| 2026-05-04 00:25 | 36.44128 | -96.52996 | 31907 ft | 414 kts | 271° |
| 2026-05-04 00:26 | 36.44018 | -96.60145 | 31900 ft | 414 kts | 271° |
| 2026-05-04 00:26 | 36.43904 | -96.67299 | 31900 ft | 414 kts | 271° |
| 2026-05-04 00:27 | 36.43786 | -96.74444 | 31896 ft | 414 kts | 271° |
| 2026-05-04 00:27 | 36.43663 | -96.81589 | 31898 ft | 414 kts | 271° |
| 2026-05-04 00:28 | 36.43537 | -96.88734 | 31899 ft | 414 kts | 271° |
| 2026-05-04 00:28 | 36.43406 | -96.95881 | 31898 ft | 414 kts | 271° |
| 2026-05-04 00:29 | 36.43270 | -97.03023 | 31898 ft | 414 kts | 271° |
| 2026-05-04 00:29 | 36.43131 | -97.10168 | 31904 ft | 413 kts | 271° |
| 2026-05-04 00:30 | 36.42987 | -97.17307 | 31896 ft | 413 kts | 271° |
| 2026-05-04 00:30 | 36.42839 | -97.24441 | 31891 ft | 413 kts | 271° |
| 2026-05-04 00:31 | 36.42689 | -97.31526 | 31876 ft | 413 kts | 271° |
| 2026-05-04 00:31 | 36.42533 | -97.38648 | 31876 ft | 413 kts | 271° |
| 2026-05-04 00:32 | 36.42372 | -97.45775 | 31874 ft | 413 kts | 270° |
| 2026-05-04 00:32 | 36.42208 | -97.52897 | 31883 ft | 413 kts | 270° |
| 2026-05-04 00:33 | 36.41953 | -97.63578 | 31891 ft | 412 kts | 270° |
| 2026-05-04 00:34 | 36.41778 | -97.70693 | 31900 ft | 412 kts | 270° |
| 2026-05-04 00:34 | 36.41599 | -97.77812 | 31900 ft | 412 kts | 270° |
| 2026-05-04 00:35 | 36.41416 | -97.84923 | 31897 ft | 412 kts | 270° |
| 2026-05-04 00:35 | 36.41228 | -97.92037 | 31871 ft | 412 kts | 270° |
| 2026-05-04 00:36 | 36.41037 | -97.99150 | 31870 ft | 412 kts | 270° |
| 2026-05-04 00:36 | 36.40841 | -98.06261 | 31868 ft | 412 kts | 270° |
| 2026-05-04 00:37 | 36.40640 | -98.13376 | 31860 ft | 412 kts | 270° |
| 2026-05-04 00:37 | 36.40436 | -98.20488 | 31856 ft | 412 kts | 270° |
| 2026-05-04 00:38 | 36.40228 | -98.27593 | 31848 ft | 412 kts | 270° |
| 2026-05-04 00:38 | 36.40015 | -98.34693 | 31844 ft | 412 kts | 270° |
| 2026-05-04 00:39 | 36.39800 | -98.41744 | 31842 ft | 411 kts | 269° |
| 2026-05-04 00:39 | 36.39579 | -98.48840 | 31841 ft | 411 kts | 269° |
| 2026-05-04 00:40 | 36.39354 | -98.55935 | 31847 ft | 411 kts | 269° |
| 2026-05-04 00:40 | 36.39125 | -98.63023 | 31855 ft | 411 kts | 269° |
| 2026-05-04 00:41 | 36.38892 | -98.70113 | 31842 ft | 411 kts | 269° |
| 2026-05-04 00:41 | 36.38655 | -98.77203 | 31857 ft | 411 kts | 269° |
| 2026-05-04 00:42 | 36.38415 | -98.84242 | 31837 ft | 411 kts | 269° |
| 2026-05-04 00:42 | 36.38169 | -98.91325 | 31844 ft | 411 kts | 269° |
| 2026-05-04 00:43 | 36.37920 | -98.98408 | 31845 ft | 411 kts | 269° |
| 2026-05-04 00:43 | 36.37666 | -99.05489 | 31841 ft | 410 kts | 269° |
| 2026-05-04 00:44 | 36.37408 | -99.12565 | 31854 ft | 410 kts | 269° |
| 2026-05-04 00:44 | 36.37146 | -99.19645 | 31864 ft | 410 kts | 269° |
| 2026-05-04 00:45 | 36.36880 | -99.26715 | 31879 ft | 410 kts | 269° |
| 2026-05-04 00:45 | 36.36610 | -99.33777 | 31905 ft | 410 kts | 269° |
| 2026-05-04 00:46 | 36.36336 | -99.40843 | 31903 ft | 409 kts | 269° |
| 2026-05-04 00:46 | 36.36060 | -99.47847 | 31917 ft | 409 kts | 269° |
| 2026-05-04 00:47 | 36.35778 | -99.54901 | 31913 ft | 409 kts | 269° |
| 2026-05-04 00:47 | 36.35492 | -99.61954 | 31909 ft | 409 kts | 269° |
| 2026-05-04 00:48 | 36.35202 | -99.69005 | 31887 ft | 409 kts | 269° |
| 2026-05-04 00:48 | 36.34908 | -99.76047 | 31887 ft | 408 kts | 269° |
| 2026-05-04 00:49 | 36.34611 | -99.83076 | 31886 ft | 408 kts | 269° |
| 2026-05-04 00:49 | 36.34216 | -99.90094 | 31882 ft | 408 kts | 266° |
| 2026-05-04 00:50 | 36.33465 | -99.97083 | 31877 ft | 409 kts | 265° |
| 2026-05-04 00:50 | 36.32676 | -100.04058 | 31865 ft | 408 kts | 265° |
| 2026-05-04 00:51 | 36.31894 | -100.11034 | 31852 ft | 408 kts | 265° |
| 2026-05-04 00:51 | 36.31121 | -100.18002 | 31843 ft | 408 kts | 265° |
| 2026-05-04 00:52 | 36.30354 | -100.24911 | 31830 ft | 407 kts | 265° |
| 2026-05-04 00:52 | 36.29579 | -100.31864 | 31831 ft | 407 kts | 265° |
| 2026-05-04 00:53 | 36.28801 | -100.38814 | 31836 ft | 407 kts | 265° |
| 2026-05-04 00:53 | 36.28019 | -100.45760 | 31848 ft | 407 kts | 265° |
| 2026-05-04 00:54 | 36.27232 | -100.52709 | 31852 ft | 407 kts | 265° |
| 2026-05-04 00:54 | 36.26443 | -100.59643 | 31857 ft | 406 kts | 265° |
| 2026-05-04 00:55 | 36.25650 | -100.66571 | 31862 ft | 406 kts | 265° |
| 2026-05-04 00:55 | 36.24853 | -100.73496 | 31861 ft | 405 kts | 265° |
| 2026-05-04 00:56 | 36.24055 | -100.80401 | 31862 ft | 405 kts | 265° |
| 2026-05-04 00:56 | 36.23253 | -100.87303 | 31856 ft | 404 kts | 265° |
| 2026-05-04 00:57 | 36.22453 | -100.94149 | 31851 ft | 404 kts | 265° |
| 2026-05-04 00:57 | 36.21645 | -101.01032 | 31840 ft | 404 kts | 265° |
| 2026-05-04 00:58 | 36.20833 | -101.07913 | 31837 ft | 403 kts | 265° |
| 2026-05-04 00:58 | 36.20019 | -101.14780 | 31829 ft | 403 kts | 265° |
| 2026-05-04 00:59 | 36.19200 | -101.21646 | 31829 ft | 403 kts | 265° |
| 2026-05-04 00:59 | 36.18517 | -101.27352 | 31824 ft | 403 kts | 265° |
| 2026-05-04 01:00 | 36.17557 | -101.35325 | 31815 ft | 403 kts | 265° |
| 2026-05-04 01:00 | 36.16862 | -101.41075 | 31810 ft | 403 kts | 265° |
| 2026-05-04 01:01 | 36.16036 | -101.47876 | 31802 ft | 402 kts | 265° |
| 2026-05-04 01:01 | 36.15200 | -101.54724 | 31802 ft | 402 kts | 265° |
| 2026-05-04 01:02 | 36.14362 | -101.61552 | 31802 ft | 401 kts | 265° |
| 2026-05-04 01:02 | 36.13520 | -101.68379 | 31809 ft | 401 kts | 265° |
| 2026-05-04 01:03 | 36.12676 | -101.75197 | 31817 ft | 400 kts | 265° |
| 2026-05-04 01:03 | 36.11830 | -101.81997 | 31834 ft | 400 kts | 265° |
| 2026-05-04 01:04 | 36.10979 | -101.88798 | 31845 ft | 400 kts | 265° |
| 2026-05-04 01:04 | 36.10126 | -101.95590 | 31862 ft | 399 kts | 265° |
| 2026-05-04 01:05 | 36.09270 | -102.02368 | 31870 ft | 399 kts | 264° |
| 2026-05-04 01:05 | 36.08411 | -102.09143 | 31875 ft | 399 kts | 264° |
| 2026-05-04 01:06 | 36.07555 | -102.15867 | 31872 ft | 398 kts | 264° |
| 2026-05-04 01:06 | 36.06689 | -102.22628 | 31863 ft | 398 kts | 264° |
| 2026-05-04 01:07 | 36.05820 | -102.29386 | 31886 ft | 398 kts | 264° |
| 2026-05-04 01:07 | 36.04949 | -102.36134 | 31913 ft | 397 kts | 264° |
| 2026-05-04 01:08 | 36.04073 | -102.42878 | 31932 ft | 397 kts | 264° |
| 2026-05-04 01:08 | 36.03201 | -102.49572 | 31937 ft | 397 kts | 264° |
| 2026-05-04 01:09 | 36.02320 | -102.56300 | 31932 ft | 397 kts | 264° |
| 2026-05-04 01:09 | 36.01435 | -102.63033 | 31936 ft | 397 kts | 264° |
| 2026-05-04 01:10 | 36.00546 | -102.69760 | 31924 ft | 397 kts | 264° |
| 2026-05-04 01:10 | 35.99653 | -102.76487 | 31900 ft | 397 kts | 264° |
| 2026-05-04 01:11 | 35.98755 | -102.83225 | 31883 ft | 397 kts | 264° |
| 2026-05-04 01:11 | 35.97856 | -102.89943 | 31861 ft | 397 kts | 264° |
| 2026-05-04 01:12 | 35.96952 | -102.96662 | 31837 ft | 397 kts | 264° |
| 2026-05-04 01:12 | 35.96046 | -103.03376 | 31832 ft | 397 kts | 264° |
| 2026-05-04 01:13 | 35.95139 | -103.10058 | 31836 ft | 396 kts | 264° |
| 2026-05-04 01:13 | 35.94219 | -103.16814 | 31838 ft | 396 kts | 264° |
| 2026-05-04 01:14 | 35.93307 | -103.23479 | 31838 ft | 396 kts | 264° |
| 2026-05-04 01:14 | 35.92386 | -103.30179 | 31837 ft | 396 kts | 264° |
| 2026-05-04 01:15 | 35.91461 | -103.36882 | 31831 ft | 396 kts | 264° |
| 2026-05-04 01:15 | 35.90533 | -103.43582 | 31826 ft | 396 kts | 264° |
| 2026-05-04 01:16 | 35.89607 | -103.50235 | 31835 ft | 396 kts | 264° |
| 2026-05-04 01:16 | 35.88670 | -103.56936 | 31828 ft | 396 kts | 264° |
| 2026-05-04 01:17 | 35.87732 | -103.63623 | 31832 ft | 396 kts | 264° |
| 2026-05-04 01:17 | 35.86788 | -103.70319 | 31830 ft | 396 kts | 264° |
| 2026-05-04 01:18 | 35.85841 | -103.77010 | 31825 ft | 396 kts | 264° |
| 2026-05-04 01:18 | 35.84892 | -103.83692 | 31823 ft | 396 kts | 264° |
| 2026-05-04 01:19 | 35.83940 | -103.90356 | 31821 ft | 395 kts | 263° |
| 2026-05-04 01:19 | 35.82991 | -103.96978 | 31826 ft | 394 kts | 263° |
| 2026-05-04 01:20 | 35.82034 | -104.03637 | 31824 ft | 394 kts | 263° |
| 2026-05-04 01:20 | 35.81073 | -104.10288 | 31818 ft | 394 kts | 263° |
| 2026-05-04 01:21 | 35.80109 | -104.16935 | 31821 ft | 393 kts | 263° |
| 2026-05-04 01:21 | 35.79142 | -104.23574 | 31819 ft | 393 kts | 263° |
| 2026-05-04 01:22 | 35.78172 | -104.30205 | 31820 ft | 393 kts | 263° |
| 2026-05-04 01:22 | 35.77199 | -104.36836 | 31815 ft | 393 kts | 263° |
| 2026-05-04 01:23 | 35.76230 | -104.43415 | 31823 ft | 393 kts | 263° |
| 2026-05-04 01:23 | 35.75251 | -104.50025 | 31818 ft | 392 kts | 263° |
| 2026-05-04 01:24 | 35.74271 | -104.56625 | 31821 ft | 391 kts | 263° |
| 2026-05-04 01:24 | 35.73289 | -104.63209 | 31831 ft | 391 kts | 263° |
| 2026-05-04 01:25 | 35.72305 | -104.69783 | 31839 ft | 390 kts | 263° |
| 2026-05-04 01:25 | 35.71317 | -104.76357 | 31872 ft | 391 kts | 263° |
| 2026-05-04 01:26 | 35.70325 | -104.82932 | 31925 ft | 391 kts | 263° |
| 2026-05-04 01:26 | 35.69327 | -104.89520 | 31976 ft | 391 kts | 263° |
| 2026-05-04 01:27 | 35.68326 | -104.96101 | 32016 ft | 392 kts | 263° |
| 2026-05-04 01:27 | 35.67321 | -105.02693 | 32057 ft | 392 kts | 263° |
| 2026-05-04 01:28 | 35.66311 | -105.09282 | 32066 ft | 393 kts | 263° |
| 2026-05-04 01:28 | 35.65295 | -105.15890 | 32061 ft | 393 kts | 263° |
| 2026-05-04 01:29 | 35.64274 | -105.22503 | 32061 ft | 394 kts | 263° |
| 2026-05-04 01:29 | 35.63256 | -105.29076 | 32043 ft | 394 kts | 263° |
| 2026-05-04 01:30 | 35.62225 | -105.35703 | 32015 ft | 395 kts | 262° |
| 2026-05-04 01:30 | 35.61190 | -105.42334 | 31992 ft | 395 kts | 262° |
| 2026-05-04 01:31 | 35.60150 | -105.48966 | 31972 ft | 394 kts | 263° |
| 2026-05-04 01:31 | 35.59109 | -105.55585 | 31953 ft | 395 kts | 262° |
| 2026-05-04 01:32 | 35.58063 | -105.62207 | 31940 ft | 394 kts | 262° |
| 2026-05-04 01:32 | 35.57015 | -105.68823 | 31949 ft | 394 kts | 262° |
| 2026-05-04 01:33 | 35.55972 | -105.75378 | 31978 ft | 393 kts | 262° |
| 2026-05-04 01:33 | 35.54921 | -105.81954 | 31999 ft | 392 kts | 262° |
| 2026-05-04 01:34 | 35.53862 | -105.88571 | 32021 ft | 392 kts | 262° |
| 2026-05-04 01:34 | 35.52813 | -105.95092 | 32038 ft | 392 kts | 262° |
| 2026-05-04 01:35 | 35.51754 | -106.01654 | 32053 ft | 392 kts | 262° |
| 2026-05-04 01:35 | 35.50684 | -106.08258 | 32055 ft | 392 kts | 262° |
| 2026-05-04 01:36 | 35.49618 | -106.14815 | 32044 ft | 392 kts | 262° |
| 2026-05-04 01:36 | 35.48549 | -106.21369 | 32017 ft | 392 kts | 262° |
| 2026-05-04 01:37 | 35.47483 | -106.27881 | 31990 ft | 392 kts | 262° |
| 2026-05-04 01:37 | 35.46405 | -106.34438 | 31973 ft | 392 kts | 262° |
| 2026-05-04 01:38 | 35.45324 | -106.40998 | 31942 ft | 393 kts | 262° |
| 2026-05-04 01:38 | 35.44237 | -106.47564 | 31909 ft | 393 kts | 262° |
| 2026-05-04 01:39 | 35.43146 | -106.54134 | 31916 ft | 393 kts | 262° |
| 2026-05-04 01:39 | 35.42052 | -106.60700 | 31938 ft | 394 kts | 262° |
| 2026-05-04 01:40 | 35.40951 | -106.67282 | 31952 ft | 394 kts | 262° |
| 2026-05-04 01:40 | 35.39848 | -106.73852 | 31975 ft | 394 kts | 261° |
| 2026-05-04 01:41 | 35.38741 | -106.80430 | 31974 ft | 394 kts | 261° |
| 2026-05-04 01:41 | 35.37630 | -106.86998 | 31988 ft | 393 kts | 261° |
| 2026-05-04 01:42 | 35.36517 | -106.93561 | 31971 ft | 394 kts | 261° |
| 2026-05-04 01:42 | 35.35401 | -107.00121 | 31968 ft | 393 kts | 261° |
| 2026-05-04 01:43 | 35.34289 | -107.06631 | 31948 ft | 393 kts | 261° |
| 2026-05-04 01:43 | 35.33168 | -107.13172 | 31920 ft | 392 kts | 261° |
| 2026-05-04 01:44 | 35.32044 | -107.19707 | 31902 ft | 392 kts | 261° |
| 2026-05-04 01:44 | 35.31102 | -107.25171 | 31908 ft | 391 kts | 261° |
| 2026-05-04 01:45 | 35.29791 | -107.32743 | 31920 ft | 391 kts | 261° |
| 2026-05-04 01:45 | 35.28283 | -107.41421 | 31910 ft | 391 kts | 261° |
| 2026-05-04 01:46 | 35.27147 | -107.47934 | 31905 ft | 391 kts | 261° |
| 2026-05-04 01:46 | 35.26009 | -107.54437 | 31941 ft | 391 kts | 261° |
| 2026-05-04 01:47 | 35.24867 | -107.60939 | 31985 ft | 391 kts | 261° |
| 2026-05-04 01:47 | 35.23718 | -107.67457 | 32025 ft | 393 kts | 260° |
| 2026-05-04 01:48 | 35.22560 | -107.74009 | 32056 ft | 394 kts | 260° |
| 2026-05-04 01:48 | 35.21395 | -107.80573 | 32093 ft | 395 kts | 260° |
| 2026-05-04 01:49 | 35.20226 | -107.87142 | 32100 ft | 395 kts | 260° |
| 2026-05-04 01:49 | 35.19053 | -107.93712 | 32097 ft | 396 kts | 260° |
| 2026-05-04 01:50 | 35.17874 | -108.00288 | 32100 ft | 396 kts | 260° |
| 2026-05-04 01:50 | 35.16700 | -108.06822 | 32067 ft | 396 kts | 260° |
| 2026-05-04 01:51 | 35.15513 | -108.13402 | 32044 ft | 397 kts | 260° |
| 2026-05-04 01:51 | 35.14320 | -108.19992 | 31996 ft | 398 kts | 260° |
| 2026-05-04 01:52 | 35.13122 | -108.26592 | 31963 ft | 398 kts | 260° |
| 2026-05-04 01:52 | 35.11919 | -108.33196 | 31924 ft | 399 kts | 260° |
| 2026-05-04 01:53 | 35.10711 | -108.39808 | 31916 ft | 399 kts | 260° |
| 2026-05-04 01:53 | 35.09499 | -108.46419 | 31924 ft | 399 kts | 260° |
| 2026-05-04 01:54 | 35.08285 | -108.53022 | 31924 ft | 399 kts | 260° |
| 2026-05-04 01:54 | 35.07072 | -108.59591 | 31967 ft | 399 kts | 260° |
| 2026-05-04 01:55 | 35.05848 | -108.66205 | 31992 ft | 399 kts | 260° |
| 2026-05-04 01:55 | 35.04619 | -108.72819 | 32021 ft | 399 kts | 259° |
| 2026-05-04 01:56 | 35.03386 | -108.79438 | 32034 ft | 400 kts | 260° |
| 2026-05-04 01:56 | 35.02240 | -108.85570 | 32075 ft | 400 kts | 259° |
| 2026-05-04 01:59 | 35.01295 | -108.90616 | 32074 ft | 400 kts | 259° |
| 2026-05-04 02:00 | 35.00051 | -108.97238 | 32076 ft | 400 kts | 259° |
| 2026-05-04 02:00 | 34.98805 | -109.03846 | 32054 ft | 399 kts | 259° |
| 2026-05-04 02:01 | 34.97567 | -109.10397 | 32025 ft | 399 kts | 259° |
| 2026-05-04 02:01 | 34.96018 | -109.16897 | 31982 ft | 402 kts | 251° |
| 2026-05-04 02:02 | 34.93478 | -109.23007 | 31933 ft | 404 kts | 247° |
| 2026-05-04 02:02 | 34.93004 | -109.24114 | 31920 ft | 404 kts | 247° |